sensor_id;sensor_type;location;lat;lon;timestamp;P1;durP1;ratioP1;P2;durP2;ratioP2
75589;SDS011;64169;47.240;11.312;2023-03-23T00:01:59;4.00;;;1.50;;
75589;SDS011;64169;47.240;11.312;2023-03-23T00:04:24;4.43;;;1.40;;
75589;SDS011;64169;47.240;11.312;2023-03-23T00:06:51;4.80;;;1.50;;
75589;SDS011;64169;47.240;11.312;2023-03-23T00:09:17;5.40;;;1.70;;
75589;SDS011;64169;47.240;11.312;2023-03-23T00:14:13;3.47;;;1.23;;
75589;SDS011;64169;47.240;11.312;2023-03-23T00:16:40;3.97;;;1.45;;
75589;SDS011;64169;47.240;11.312;2023-03-23T00:19:12;5.10;;;1.60;;
75589;SDS011;64169;47.240;11.312;2023-03-23T00:21:38;4.13;;;1.48;;
75589;SDS011;64169;47.240;11.312;2023-03-23T00:26:42;5.03;;;1.50;;
75589;SDS011;64169;47.240;11.312;2023-03-23T00:29:30;4.93;;;1.73;;
75589;SDS011;64169;47.240;11.312;2023-03-23T00:31:54;4.20;;;1.35;;
75589;SDS011;64169;47.240;11.312;2023-03-23T00:34:22;5.43;;;1.80;;
75589;SDS011;64169;47.240;11.312;2023-03-23T00:36:50;5.43;;;1.60;;
75589;SDS011;64169;47.240;11.312;2023-03-23T00:39:18;4.32;;;1.80;;
75589;SDS011;64169;47.240;11.312;2023-03-23T00:41:44;4.75;;;1.80;;
75589;SDS011;64169;47.240;11.312;2023-03-23T00:44:10;3.90;;;1.52;;
75589;SDS011;64169;47.240;11.312;2023-03-23T00:46:48;5.55;;;2.10;;
75589;SDS011;64169;47.240;11.312;2023-03-23T00:49:15;5.75;;;1.55;;
75589;SDS011;64169;47.240;11.312;2023-03-23T00:51:42;6.10;;;1.55;;
75589;SDS011;64169;47.240;11.312;2023-03-23T00:54:07;4.47;;;1.55;;
75589;SDS011;64169;47.240;11.312;2023-03-23T00:56:33;4.93;;;2.00;;
75589;SDS011;64169;47.240;11.312;2023-03-23T00:58:59;5.45;;;1.70;;
75589;SDS011;64169;47.240;11.312;2023-03-23T01:01:24;5.97;;;1.83;;
75589;SDS011;64169;47.240;11.312;2023-03-23T01:03:49;4.72;;;1.70;;
75589;SDS011;64169;47.240;11.312;2023-03-23T01:06:15;6.07;;;2.10;;
75589;SDS011;64169;47.240;11.312;2023-03-23T01:08:41;5.70;;;2.25;;
75589;SDS011;64169;47.240;11.312;2023-03-23T01:11:10;6.75;;;2.00;;
75589;SDS011;64169;47.240;11.312;2023-03-23T01:13:37;4.38;;;1.60;;
75589;SDS011;64169;47.240;11.312;2023-03-23T01:16:03;5.00;;;1.90;;
75589;SDS011;64169;47.240;11.312;2023-03-23T01:18:28;5.60;;;1.80;;
75589;SDS011;64169;47.240;11.312;2023-03-23T01:20:54;4.65;;;1.75;;
75589;SDS011;64169;47.240;11.312;2023-03-23T01:23:20;5.85;;;1.80;;
75589;SDS011;64169;47.240;11.312;2023-03-23T01:25:45;4.07;;;1.73;;
75589;SDS011;64169;47.240;11.312;2023-03-23T01:28:11;6.18;;;1.70;;
75589;SDS011;64169;47.240;11.312;2023-03-23T01:30:36;5.70;;;1.80;;
75589;SDS011;64169;47.240;11.312;2023-03-23T01:33:02;6.60;;;2.00;;
75589;SDS011;64169;47.240;11.312;2023-03-23T01:35:27;5.85;;;2.42;;
75589;SDS011;64169;47.240;11.312;2023-03-23T01:37:53;6.25;;;2.00;;
75589;SDS011;64169;47.240;11.312;2023-03-23T01:40:19;5.82;;;1.80;;
75589;SDS011;64169;47.240;11.312;2023-03-23T01:42:44;5.68;;;1.80;;
75589;SDS011;64169;47.240;11.312;2023-03-23T01:50:57;5.47;;;2.20;;
75589;SDS011;64169;47.240;11.312;2023-03-23T01:53:28;4.95;;;1.85;;
75589;SDS011;64169;47.240;11.312;2023-03-23T01:55:55;4.75;;;1.75;;
75589;SDS011;64169;47.240;11.312;2023-03-23T01:58:27;4.50;;;1.38;;
75589;SDS011;64169;47.240;11.312;2023-03-23T02:00:56;5.35;;;1.98;;
75589;SDS011;64169;47.240;11.312;2023-03-23T02:03:27;5.55;;;1.92;;
75589;SDS011;64169;47.240;11.312;2023-03-23T02:05:53;6.90;;;2.10;;
75589;SDS011;64169;47.240;11.312;2023-03-23T02:08:19;5.38;;;1.92;;
75589;SDS011;64169;47.240;11.312;2023-03-23T02:10:45;5.07;;;2.10;;
75589;SDS011;64169;47.240;11.312;2023-03-23T02:13:11;5.55;;;2.15;;
75589;SDS011;64169;47.240;11.312;2023-03-23T02:15:53;5.07;;;1.70;;
75589;SDS011;64169;47.240;11.312;2023-03-23T02:31:27;6.47;;;2.25;;
75589;SDS011;64169;47.240;11.312;2023-03-23T02:41:53;5.93;;;1.77;;
75589;SDS011;64169;47.240;11.312;2023-03-23T02:44:21;4.45;;;1.58;;
75589;SDS011;64169;47.240;11.312;2023-03-23T02:46:48;6.15;;;2.03;;
75589;SDS011;64169;47.240;11.312;2023-03-23T02:49:14;4.97;;;2.05;;
75589;SDS011;64169;47.240;11.312;2023-03-23T02:51:40;6.10;;;2.22;;
75589;SDS011;64169;47.240;11.312;2023-03-23T02:54:08;6.38;;;2.58;;
75589;SDS011;64169;47.240;11.312;2023-03-23T02:56:34;6.28;;;2.20;;
75589;SDS011;64169;47.240;11.312;2023-03-23T02:59:01;4.88;;;1.85;;
75589;SDS011;64169;47.240;11.312;2023-03-23T03:03:53;5.82;;;2.00;;
75589;SDS011;64169;47.240;11.312;2023-03-23T03:09:21;6.93;;;2.50;;
75589;SDS011;64169;47.240;11.312;2023-03-23T03:12:13;4.82;;;2.15;;
75589;SDS011;64169;47.240;11.312;2023-03-23T03:14:49;6.80;;;2.40;;
75589;SDS011;64169;47.240;11.312;2023-03-23T03:17:22;7.15;;;2.20;;
75589;SDS011;64169;47.240;11.312;2023-03-23T03:19:50;5.32;;;2.10;;
75589;SDS011;64169;47.240;11.312;2023-03-23T03:22:20;5.63;;;1.88;;
75589;SDS011;64169;47.240;11.312;2023-03-23T03:24:46;8.07;;;2.50;;
75589;SDS011;64169;47.240;11.312;2023-03-23T03:27:13;7.18;;;2.50;;
75589;SDS011;64169;47.240;11.312;2023-03-23T03:29:42;6.45;;;2.28;;
75589;SDS011;64169;47.240;11.312;2023-03-23T03:32:11;6.22;;;2.55;;
75589;SDS011;64169;47.240;11.312;2023-03-23T03:34:39;6.63;;;2.08;;
75589;SDS011;64169;47.240;11.312;2023-03-23T03:37:05;4.88;;;1.90;;
75589;SDS011;64169;47.240;11.312;2023-03-23T03:39:33;6.30;;;2.03;;
75589;SDS011;64169;47.240;11.312;2023-03-23T03:42:00;5.53;;;2.28;;
75589;SDS011;64169;47.240;11.312;2023-03-23T03:44:25;5.95;;;2.45;;
75589;SDS011;64169;47.240;11.312;2023-03-23T03:46:51;6.10;;;2.33;;
75589;SDS011;64169;47.240;11.312;2023-03-23T03:49:16;9.32;;;2.30;;
75589;SDS011;64169;47.240;11.312;2023-03-23T03:51:42;9.48;;;2.20;;
75589;SDS011;64169;47.240;11.312;2023-03-23T03:54:07;8.10;;;2.85;;
75589;SDS011;64169;47.240;11.312;2023-03-23T03:56:33;7.22;;;2.85;;
75589;SDS011;64169;47.240;11.312;2023-03-23T03:59:05;7.50;;;2.58;;
75589;SDS011;64169;47.240;11.312;2023-03-23T04:01:35;6.38;;;2.17;;
75589;SDS011;64169;47.240;11.312;2023-03-23T04:04:01;4.90;;;2.00;;
75589;SDS011;64169;47.240;11.312;2023-03-23T04:06:26;5.65;;;2.25;;
75589;SDS011;64169;47.240;11.312;2023-03-23T04:08:56;4.97;;;1.83;;
75589;SDS011;64169;47.240;11.312;2023-03-23T04:11:24;5.57;;;2.03;;
75589;SDS011;64169;47.240;11.312;2023-03-23T04:13:50;7.78;;;3.00;;
75589;SDS011;64169;47.240;11.312;2023-03-23T04:16:15;6.15;;;2.22;;
75589;SDS011;64169;47.240;11.312;2023-03-23T04:18:42;8.82;;;2.03;;
75589;SDS011;64169;47.240;11.312;2023-03-23T04:21:07;4.25;;;1.83;;
75589;SDS011;64169;47.240;11.312;2023-03-23T04:23:33;6.28;;;2.03;;
75589;SDS011;64169;47.240;11.312;2023-03-23T04:26:00;5.80;;;2.35;;
75589;SDS011;64169;47.240;11.312;2023-03-23T04:28:27;5.75;;;1.98;;
75589;SDS011;64169;47.240;11.312;2023-03-23T04:30:53;4.70;;;1.67;;
75589;SDS011;64169;47.240;11.312;2023-03-23T04:33:19;5.55;;;2.00;;
75589;SDS011;64169;47.240;11.312;2023-03-23T04:35:46;5.28;;;1.83;;
75589;SDS011;64169;47.240;11.312;2023-03-23T04:38:13;6.05;;;1.83;;
75589;SDS011;64169;47.240;11.312;2023-03-23T04:40:41;4.60;;;1.52;;
75589;SDS011;64169;47.240;11.312;2023-03-23T04:43:07;5.57;;;1.83;;
75589;SDS011;64169;47.240;11.312;2023-03-23T04:45:33;4.82;;;1.70;;
75589;SDS011;64169;47.240;11.312;2023-03-23T04:47:59;7.68;;;2.40;;
75589;SDS011;64169;47.240;11.312;2023-03-23T04:50:29;9.65;;;3.25;;
75589;SDS011;64169;47.240;11.312;2023-03-23T04:52:57;7.57;;;2.33;;
75589;SDS011;64169;47.240;11.312;2023-03-23T04:55:30;7.38;;;2.38;;
75589;SDS011;64169;47.240;11.312;2023-03-23T04:58:00;6.60;;;2.20;;
75589;SDS011;64169;47.240;11.312;2023-03-23T05:00:27;7.15;;;2.42;;
75589;SDS011;64169;47.240;11.312;2023-03-23T05:02:53;6.78;;;2.63;;
75589;SDS011;64169;47.240;11.312;2023-03-23T05:05:20;5.53;;;2.10;;
75589;SDS011;64169;47.240;11.312;2023-03-23T05:07:47;5.18;;;1.95;;
75589;SDS011;64169;47.240;11.312;2023-03-23T05:10:12;6.07;;;2.10;;
75589;SDS011;64169;47.240;11.312;2023-03-23T05:12:38;5.15;;;1.83;;
75589;SDS011;64169;47.240;11.312;2023-03-23T05:15:04;4.72;;;1.90;;
75589;SDS011;64169;47.240;11.312;2023-03-23T05:17:31;5.47;;;2.13;;
75589;SDS011;64169;47.240;11.312;2023-03-23T05:19:57;5.85;;;2.28;;
75589;SDS011;64169;47.240;11.312;2023-03-23T05:22:23;6.88;;;2.42;;
75589;SDS011;64169;47.240;11.312;2023-03-23T05:24:51;9.68;;;3.42;;
75589;SDS011;64169;47.240;11.312;2023-03-23T05:27:17;8.02;;;2.80;;
75589;SDS011;64169;47.240;11.312;2023-03-23T05:29:44;6.05;;;2.38;;
75589;SDS011;64169;47.240;11.312;2023-03-23T05:32:13;7.32;;;2.03;;
75589;SDS011;64169;47.240;11.312;2023-03-23T05:34:39;4.30;;;1.90;;
75589;SDS011;64169;47.240;11.312;2023-03-23T05:37:05;5.07;;;1.98;;
75589;SDS011;64169;47.240;11.312;2023-03-23T05:39:31;7.18;;;2.70;;
75589;SDS011;64169;47.240;11.312;2023-03-23T05:41:57;8.00;;;2.90;;
75589;SDS011;64169;47.240;11.312;2023-03-23T05:44:23;13.15;;;3.50;;
75589;SDS011;64169;47.240;11.312;2023-03-23T05:46:49;7.30;;;3.00;;
75589;SDS011;64169;47.240;11.312;2023-03-23T05:49:15;8.27;;;3.28;;
75589;SDS011;64169;47.240;11.312;2023-03-23T05:51:41;7.00;;;2.88;;
75589;SDS011;64169;47.240;11.312;2023-03-23T05:54:08;6.28;;;2.65;;
75589;SDS011;64169;47.240;11.312;2023-03-23T05:56:35;6.43;;;2.70;;
75589;SDS011;64169;47.240;11.312;2023-03-23T05:59:01;5.63;;;2.42;;
75589;SDS011;64169;47.240;11.312;2023-03-23T06:01:27;8.98;;;2.80;;
75589;SDS011;64169;47.240;11.312;2023-03-23T06:03:53;5.95;;;2.33;;
75589;SDS011;64169;47.240;11.312;2023-03-23T06:06:19;7.88;;;2.88;;
75589;SDS011;64169;47.240;11.312;2023-03-23T06:08:45;7.88;;;2.90;;
75589;SDS011;64169;47.240;11.312;2023-03-23T06:11:11;5.78;;;2.40;;
75589;SDS011;64169;47.240;11.312;2023-03-23T06:13:37;8.50;;;3.10;;
75589;SDS011;64169;47.240;11.312;2023-03-23T06:16:02;5.32;;;2.33;;
75589;SDS011;64169;47.240;11.312;2023-03-23T06:18:29;6.07;;;2.58;;
75589;SDS011;64169;47.240;11.312;2023-03-23T06:20:54;6.60;;;2.53;;
75589;SDS011;64169;47.240;11.312;2023-03-23T06:23:20;6.68;;;2.90;;
75589;SDS011;64169;47.240;11.312;2023-03-23T06:25:46;5.30;;;2.20;;
75589;SDS011;64169;47.240;11.312;2023-03-23T06:28:11;9.10;;;2.28;;
75589;SDS011;64169;47.240;11.312;2023-03-23T06:30:37;6.40;;;2.42;;
75589;SDS011;64169;47.240;11.312;2023-03-23T06:33:02;8.50;;;2.67;;
75589;SDS011;64169;47.240;11.312;2023-03-23T06:35:30;7.32;;;2.83;;
75589;SDS011;64169;47.240;11.312;2023-03-23T06:37:57;10.23;;;3.05;;
75589;SDS011;64169;47.240;11.312;2023-03-23T06:40:26;8.05;;;3.72;;
75589;SDS011;64169;47.240;11.312;2023-03-23T06:42:53;8.73;;;2.67;;
75589;SDS011;64169;47.240;11.312;2023-03-23T06:45:19;7.00;;;3.00;;
75589;SDS011;64169;47.240;11.312;2023-03-23T06:47:45;5.90;;;2.55;;
75589;SDS011;64169;47.240;11.312;2023-03-23T06:50:14;8.75;;;2.90;;
75589;SDS011;64169;47.240;11.312;2023-03-23T06:52:46;7.28;;;2.67;;
75589;SDS011;64169;47.240;11.312;2023-03-23T06:55:12;6.13;;;2.65;;
75589;SDS011;64169;47.240;11.312;2023-03-23T06:57:38;7.32;;;3.13;;
75589;SDS011;64169;47.240;11.312;2023-03-23T07:00:04;7.68;;;3.25;;
75589;SDS011;64169;47.240;11.312;2023-03-23T07:02:34;7.63;;;3.17;;
75589;SDS011;64169;47.240;11.312;2023-03-23T07:05:00;6.30;;;3.00;;
75589;SDS011;64169;47.240;11.312;2023-03-23T07:07:26;7.20;;;2.85;;
75589;SDS011;64169;47.240;11.312;2023-03-23T07:09:51;6.65;;;2.47;;
75589;SDS011;64169;47.240;11.312;2023-03-23T07:12:17;8.32;;;4.00;;
75589;SDS011;64169;47.240;11.312;2023-03-23T07:14:42;5.95;;;2.45;;
75589;SDS011;64169;47.240;11.312;2023-03-23T07:17:08;6.38;;;2.85;;
75589;SDS011;64169;47.240;11.312;2023-03-23T07:19:34;7.70;;;3.00;;
75589;SDS011;64169;47.240;11.312;2023-03-23T07:22:00;6.32;;;2.92;;
75589;SDS011;64169;47.240;11.312;2023-03-23T07:24:25;5.40;;;2.78;;
75589;SDS011;64169;47.240;11.312;2023-03-23T07:26:51;7.25;;;3.10;;
75589;SDS011;64169;47.240;11.312;2023-03-23T07:29:16;10.80;;;4.20;;
75589;SDS011;64169;47.240;11.312;2023-03-23T07:31:42;10.02;;;3.95;;
75589;SDS011;64169;47.240;11.312;2023-03-23T07:34:07;7.55;;;3.65;;
75589;SDS011;64169;47.240;11.312;2023-03-23T07:36:33;8.32;;;3.70;;
75589;SDS011;64169;47.240;11.312;2023-03-23T07:39:02;11.13;;;3.47;;
75589;SDS011;64169;47.240;11.312;2023-03-23T07:41:30;8.38;;;3.30;;
75589;SDS011;64169;47.240;11.312;2023-03-23T07:43:56;8.35;;;3.35;;
75589;SDS011;64169;47.240;11.312;2023-03-23T07:46:21;7.50;;;2.80;;
75589;SDS011;64169;47.240;11.312;2023-03-23T07:48:47;5.10;;;2.17;;
75589;SDS011;64169;47.240;11.312;2023-03-23T07:51:14;7.00;;;2.72;;
75589;SDS011;64169;47.240;11.312;2023-03-23T07:53:41;6.70;;;2.90;;
75589;SDS011;64169;47.240;11.312;2023-03-23T07:56:09;5.90;;;2.78;;
75589;SDS011;64169;47.240;11.312;2023-03-23T07:58:39;6.30;;;3.00;;
75589;SDS011;64169;47.240;11.312;2023-03-23T08:01:06;7.00;;;3.38;;
75589;SDS011;64169;47.240;11.312;2023-03-23T08:03:32;8.65;;;2.88;;
75589;SDS011;64169;47.240;11.312;2023-03-23T08:05:58;6.85;;;2.92;;
75589;SDS011;64169;47.240;11.312;2023-03-23T08:08:24;7.57;;;2.90;;
75589;SDS011;64169;47.240;11.312;2023-03-23T08:10:50;6.00;;;2.28;;
75589;SDS011;64169;47.240;11.312;2023-03-23T08:13:15;6.82;;;2.40;;
75589;SDS011;64169;47.240;11.312;2023-03-23T08:15:41;5.30;;;2.45;;
75589;SDS011;64169;47.240;11.312;2023-03-23T08:18:08;7.15;;;2.65;;
75589;SDS011;64169;47.240;11.312;2023-03-23T08:20:34;5.75;;;2.50;;
75589;SDS011;64169;47.240;11.312;2023-03-23T08:23:00;5.53;;;2.67;;
75589;SDS011;64169;47.240;11.312;2023-03-23T08:25:27;6.15;;;3.00;;
75589;SDS011;64169;47.240;11.312;2023-03-23T08:27:56;7.38;;;2.67;;
75589;SDS011;64169;47.240;11.312;2023-03-23T08:30:21;6.75;;;2.75;;
75589;SDS011;64169;47.240;11.312;2023-03-23T08:32:51;7.00;;;2.83;;
75589;SDS011;64169;47.240;11.312;2023-03-23T08:35:17;6.32;;;2.83;;
75589;SDS011;64169;47.240;11.312;2023-03-23T08:37:44;6.53;;;2.90;;
75589;SDS011;64169;47.240;11.312;2023-03-23T08:40:11;7.57;;;2.97;;
75589;SDS011;64169;47.240;11.312;2023-03-23T08:42:39;7.68;;;3.28;;
75589;SDS011;64169;47.240;11.312;2023-03-23T08:45:09;6.63;;;3.13;;
75589;SDS011;64169;47.240;11.312;2023-03-23T08:47:36;6.60;;;3.00;;
75589;SDS011;64169;47.240;11.312;2023-03-23T08:50:03;7.22;;;3.20;;
75589;SDS011;64169;47.240;11.312;2023-03-23T08:52:30;10.25;;;3.20;;
75589;SDS011;64169;47.240;11.312;2023-03-23T08:54:55;7.70;;;3.60;;
75589;SDS011;64169;47.240;11.312;2023-03-23T08:57:22;7.13;;;3.20;;
75589;SDS011;64169;47.240;11.312;2023-03-23T08:59:48;8.05;;;3.20;;
75589;SDS011;64169;47.240;11.312;2023-03-23T09:02:13;6.10;;;3.05;;
75589;SDS011;64169;47.240;11.312;2023-03-23T09:04:39;6.55;;;3.05;;
75589;SDS011;64169;47.240;11.312;2023-03-23T09:07:08;7.90;;;3.33;;
75589;SDS011;64169;47.240;11.312;2023-03-23T09:09:38;6.70;;;3.03;;
75589;SDS011;64169;47.240;11.312;2023-03-23T09:12:09;6.50;;;2.95;;
75589;SDS011;64169;47.240;11.312;2023-03-23T09:14:35;6.05;;;2.58;;
75589;SDS011;64169;47.240;11.312;2023-03-23T09:17:02;6.53;;;2.55;;
75589;SDS011;64169;47.240;11.312;2023-03-23T09:19:28;7.20;;;2.97;;
75589;SDS011;64169;47.240;11.312;2023-03-23T09:21:54;7.25;;;3.13;;
75589;SDS011;64169;47.240;11.312;2023-03-23T09:24:20;7.85;;;3.22;;
75589;SDS011;64169;47.240;11.312;2023-03-23T09:26:46;6.82;;;3.05;;
75589;SDS011;64169;47.240;11.312;2023-03-23T09:29:11;7.60;;;3.10;;
75589;SDS011;64169;47.240;11.312;2023-03-23T09:31:38;8.48;;;3.15;;
75589;SDS011;64169;47.240;11.312;2023-03-23T09:34:05;7.57;;;3.10;;
75589;SDS011;64169;47.240;11.312;2023-03-23T09:36:31;7.07;;;2.70;;
75589;SDS011;64169;47.240;11.312;2023-03-23T09:38:57;7.05;;;2.85;;
75589;SDS011;64169;47.240;11.312;2023-03-23T09:48:56;8.00;;;3.13;;
75589;SDS011;64169;47.240;11.312;2023-03-23T09:53:56;7.38;;;3.70;;
75589;SDS011;64169;47.240;11.312;2023-03-23T09:56:28;6.15;;;3.08;;
75589;SDS011;64169;47.240;11.312;2023-03-23T10:01:24;6.63;;;3.13;;
75589;SDS011;64169;47.240;11.312;2023-03-23T10:03:52;8.40;;;3.00;;
75589;SDS011;64169;47.240;11.312;2023-03-23T10:06:23;7.55;;;2.97;;
75589;SDS011;64169;47.240;11.312;2023-03-23T10:08:53;6.28;;;2.38;;
75589;SDS011;64169;47.240;11.312;2023-03-23T10:19:34;7.07;;;3.05;;
75589;SDS011;64169;47.240;11.312;2023-03-23T10:22:14;6.93;;;2.80;;
75589;SDS011;64169;47.240;11.312;2023-03-23T10:24:49;7.18;;;2.85;;
75589;SDS011;64169;47.240;11.312;2023-03-23T10:35:06;6.30;;;2.60;;
75589;SDS011;64169;47.240;11.312;2023-03-23T10:37:38;11.98;;;3.40;;
75589;SDS011;64169;47.240;11.312;2023-03-23T10:40:19;6.88;;;3.17;;
75589;SDS011;64169;47.240;11.312;2023-03-23T10:42:46;7.32;;;3.10;;
75589;SDS011;64169;47.240;11.312;2023-03-23T10:47:42;7.45;;;3.88;;
75589;SDS011;64169;47.240;11.312;2023-03-23T10:50:12;9.32;;;3.53;;
75589;SDS011;64169;47.240;11.312;2023-03-23T10:52:43;7.75;;;3.63;;
75589;SDS011;64169;47.240;11.312;2023-03-23T10:57:44;9.07;;;4.35;;
75589;SDS011;64169;47.240;11.312;2023-03-23T11:05:44;9.15;;;4.15;;
75589;SDS011;64169;47.240;11.312;2023-03-23T11:08:14;7.18;;;3.75;;
75589;SDS011;64169;47.240;11.312;2023-03-23T11:10:49;7.65;;;4.13;;
75589;SDS011;64169;47.240;11.312;2023-03-23T11:13:18;8.88;;;3.83;;
75589;SDS011;64169;47.240;11.312;2023-03-23T11:15:45;7.00;;;3.78;;
75589;SDS011;64169;47.240;11.312;2023-03-23T11:21:08;10.45;;;5.20;;
75589;SDS011;64169;47.240;11.312;2023-03-23T11:23:37;11.75;;;5.93;;
75589;SDS011;64169;47.240;11.312;2023-03-23T11:26:14;8.98;;;4.60;;
75589;SDS011;64169;47.240;11.312;2023-03-23T11:28:44;8.60;;;4.80;;
75589;SDS011;64169;47.240;11.312;2023-03-23T11:31:12;10.23;;;4.35;;
75589;SDS011;64169;47.240;11.312;2023-03-23T11:33:39;8.98;;;4.72;;
75589;SDS011;64169;47.240;11.312;2023-03-23T11:36:28;12.10;;;6.13;;
75589;SDS011;64169;47.240;11.312;2023-03-23T11:39:25;10.07;;;5.13;;
75589;SDS011;64169;47.240;11.312;2023-03-23T11:41:53;12.52;;;5.25;;
75589;SDS011;64169;47.240;11.312;2023-03-23T11:44:20;10.18;;;5.70;;
75589;SDS011;64169;47.240;11.312;2023-03-23T11:46:49;13.32;;;6.38;;
75589;SDS011;64169;47.240;11.312;2023-03-23T11:49:41;11.77;;;6.13;;
75589;SDS011;64169;47.240;11.312;2023-03-23T11:52:16;12.85;;;6.00;;
75589;SDS011;64169;47.240;11.312;2023-03-23T11:54:56;11.45;;;5.70;;
75589;SDS011;64169;47.240;11.312;2023-03-23T11:57:27;10.15;;;5.22;;
75589;SDS011;64169;47.240;11.312;2023-03-23T11:59:55;9.75;;;5.32;;
75589;SDS011;64169;47.240;11.312;2023-03-23T12:12:51;9.40;;;4.25;;
75589;SDS011;64169;47.240;11.312;2023-03-23T12:15:27;10.95;;;5.47;;
75589;SDS011;64169;47.240;11.312;2023-03-23T12:18:22;9.63;;;4.68;;
75589;SDS011;64169;47.240;11.312;2023-03-23T12:26:18;12.40;;;5.68;;
75589;SDS011;64169;47.240;11.312;2023-03-23T12:31:34;12.25;;;6.93;;
75589;SDS011;64169;47.240;11.312;2023-03-23T12:48:19;11.90;;;6.38;;
75589;SDS011;64169;47.240;11.312;2023-03-23T12:57:01;11.25;;;6.22;;
75589;SDS011;64169;47.240;11.312;2023-03-23T13:02:28;11.50;;;6.22;;
75589;SDS011;64169;47.240;11.312;2023-03-23T13:05:00;9.73;;;5.53;;
75589;SDS011;64169;47.240;11.312;2023-03-23T13:07:49;10.13;;;5.25;;
75589;SDS011;64169;47.240;11.312;2023-03-23T13:10:22;9.63;;;4.80;;
75589;SDS011;64169;47.240;11.312;2023-03-23T13:12:52;10.13;;;5.25;;
75589;SDS011;64169;47.240;11.312;2023-03-23T13:15:31;10.52;;;5.55;;
75589;SDS011;64169;47.240;11.312;2023-03-23T13:31:17;9.95;;;5.85;;
75589;SDS011;64169;47.240;11.312;2023-03-23T13:33:57;12.27;;;5.22;;
75589;SDS011;64169;47.240;11.312;2023-03-23T13:36:29;11.77;;;5.85;;
75589;SDS011;64169;47.240;11.312;2023-03-23T13:38:57;9.93;;;5.50;;
75589;SDS011;64169;47.240;11.312;2023-03-23T13:41:24;10.98;;;5.00;;
75589;SDS011;64169;47.240;11.312;2023-03-23T13:43:51;11.48;;;5.95;;
75589;SDS011;64169;47.240;11.312;2023-03-23T13:46:29;12.30;;;6.50;;
75589;SDS011;64169;47.240;11.312;2023-03-23T13:56:43;13.38;;;6.22;;
75589;SDS011;64169;47.240;11.312;2023-03-23T13:59:35;10.70;;;5.68;;
75589;SDS011;64169;47.240;11.312;2023-03-23T14:02:30;12.77;;;6.60;;
75589;SDS011;64169;47.240;11.312;2023-03-23T14:10:19;14.88;;;7.20;;
75589;SDS011;64169;47.240;11.312;2023-03-23T14:12:45;11.52;;;6.20;;
75589;SDS011;64169;47.240;11.312;2023-03-23T14:15:11;16.05;;;7.32;;
75589;SDS011;64169;47.240;11.312;2023-03-23T14:17:41;13.15;;;6.53;;
75589;SDS011;64169;47.240;11.312;2023-03-23T14:20:42;10.77;;;5.28;;
75589;SDS011;64169;47.240;11.312;2023-03-23T14:23:01;11.63;;;5.53;;
75589;SDS011;64169;47.240;11.312;2023-03-23T14:25:28;12.40;;;5.97;;
75589;SDS011;64169;47.240;11.312;2023-03-23T14:27:55;13.32;;;6.15;;
75589;SDS011;64169;47.240;11.312;2023-03-23T14:30:22;12.88;;;6.30;;
75589;SDS011;64169;47.240;11.312;2023-03-23T14:32:50;15.30;;;6.57;;
75589;SDS011;64169;47.240;11.312;2023-03-23T14:37:56;13.35;;;5.60;;
75589;SDS011;64169;47.240;11.312;2023-03-23T14:40:22;12.80;;;5.75;;
75589;SDS011;64169;47.240;11.312;2023-03-23T14:42:47;12.68;;;5.55;;
75589;SDS011;64169;47.240;11.312;2023-03-23T14:45:16;11.38;;;5.20;;
75589;SDS011;64169;47.240;11.312;2023-03-23T14:47:47;14.05;;;6.13;;
75589;SDS011;64169;47.240;11.312;2023-03-23T14:50:25;11.63;;;6.07;;
75589;SDS011;64169;47.240;11.312;2023-03-23T14:52:51;11.23;;;5.75;;
75589;SDS011;64169;47.240;11.312;2023-03-23T14:55:20;11.10;;;5.63;;
75589;SDS011;64169;47.240;11.312;2023-03-23T15:00:32;12.50;;;5.25;;
75589;SDS011;64169;47.240;11.312;2023-03-23T15:03:00;13.68;;;6.30;;
75589;SDS011;64169;47.240;11.312;2023-03-23T15:08:02;12.57;;;6.43;;
75589;SDS011;64169;47.240;11.312;2023-03-23T15:10:30;14.45;;;5.93;;
75589;SDS011;64169;47.240;11.312;2023-03-23T15:12:55;13.43;;;6.10;;
75589;SDS011;64169;47.240;11.312;2023-03-23T15:17:51;13.77;;;6.10;;
75589;SDS011;64169;47.240;11.312;2023-03-23T15:20:27;12.80;;;5.45;;
75589;SDS011;64169;47.240;11.312;2023-03-23T15:22:55;11.20;;;5.90;;
75589;SDS011;64169;47.240;11.312;2023-03-23T15:30:46;14.02;;;6.90;;
75589;SDS011;64169;47.240;11.312;2023-03-23T15:33:13;12.90;;;5.97;;
75589;SDS011;64169;47.240;11.312;2023-03-23T15:35:48;14.85;;;6.78;;
75589;SDS011;64169;47.240;11.312;2023-03-23T15:38:18;16.50;;;7.72;;
75589;SDS011;64169;47.240;11.312;2023-03-23T15:40:48;15.05;;;7.03;;
75589;SDS011;64169;47.240;11.312;2023-03-23T15:43:20;13.63;;;7.07;;
75589;SDS011;64169;47.240;11.312;2023-03-23T15:45:52;16.02;;;6.90;;
75589;SDS011;64169;47.240;11.312;2023-03-23T15:48:20;14.00;;;6.57;;
75589;SDS011;64169;47.240;11.312;2023-03-23T15:50:46;15.60;;;8.10;;
75589;SDS011;64169;47.240;11.312;2023-03-23T15:53:22;16.42;;;7.80;;
75589;SDS011;64169;47.240;11.312;2023-03-23T15:55:51;16.70;;;7.82;;
75589;SDS011;64169;47.240;11.312;2023-03-23T15:58:17;17.50;;;7.43;;
75589;SDS011;64169;47.240;11.312;2023-03-23T16:00:42;18.15;;;7.15;;
75589;SDS011;64169;47.240;11.312;2023-03-23T16:03:11;14.38;;;6.70;;
75589;SDS011;64169;47.240;11.312;2023-03-23T16:05:40;16.77;;;6.75;;
75589;SDS011;64169;47.240;11.312;2023-03-23T16:08:07;14.70;;;6.78;;
75589;SDS011;64169;47.240;11.312;2023-03-23T16:10:35;13.93;;;5.88;;
75589;SDS011;64169;47.240;11.312;2023-03-23T16:13:01;13.02;;;4.95;;
75589;SDS011;64169;47.240;11.312;2023-03-23T16:15:26;14.45;;;6.38;;
75589;SDS011;64169;47.240;11.312;2023-03-23T16:17:52;13.05;;;6.03;;
75589;SDS011;64169;47.240;11.312;2023-03-23T16:20:19;15.65;;;6.30;;
75589;SDS011;64169;47.240;11.312;2023-03-23T16:22:46;14.38;;;7.07;;
75589;SDS011;64169;47.240;11.312;2023-03-23T16:25:12;14.43;;;8.63;;
75589;SDS011;64169;47.240;11.312;2023-03-23T16:27:38;14.52;;;6.25;;
75589;SDS011;64169;47.240;11.312;2023-03-23T16:30:14;16.42;;;6.68;;
75589;SDS011;64169;47.240;11.312;2023-03-23T16:32:43;17.95;;;7.80;;
75589;SDS011;64169;47.240;11.312;2023-03-23T16:35:10;13.48;;;6.20;;
75589;SDS011;64169;47.240;11.312;2023-03-23T16:37:37;15.48;;;6.95;;
75589;SDS011;64169;47.240;11.312;2023-03-23T16:40:03;15.80;;;7.22;;
75589;SDS011;64169;47.240;11.312;2023-03-23T16:42:29;20.02;;;8.98;;
75589;SDS011;64169;47.240;11.312;2023-03-23T16:44:54;15.77;;;7.07;;
75589;SDS011;64169;47.240;11.312;2023-03-23T16:47:20;14.00;;;6.65;;
75589;SDS011;64169;47.240;11.312;2023-03-23T16:49:52;15.85;;;6.65;;
75589;SDS011;64169;47.240;11.312;2023-03-23T16:52:18;22.95;;;9.43;;
75589;SDS011;64169;47.240;11.312;2023-03-23T16:54:43;18.65;;;8.55;;
75589;SDS011;64169;47.240;11.312;2023-03-23T16:57:09;18.10;;;8.23;;
75589;SDS011;64169;47.240;11.312;2023-03-23T16:59:34;18.23;;;7.55;;
75589;SDS011;64169;47.240;11.312;2023-03-23T17:02:00;17.45;;;7.82;;
75589;SDS011;64169;47.240;11.312;2023-03-23T17:04:30;18.15;;;6.85;;
75589;SDS011;64169;47.240;11.312;2023-03-23T17:06:57;16.90;;;9.32;;
75589;SDS011;64169;47.240;11.312;2023-03-23T17:09:26;16.45;;;7.25;;
75589;SDS011;64169;47.240;11.312;2023-03-23T17:11:52;16.50;;;6.80;;
75589;SDS011;64169;47.240;11.312;2023-03-23T17:14:19;18.73;;;7.43;;
75589;SDS011;64169;47.240;11.312;2023-03-23T17:16:44;15.57;;;6.35;;
75589;SDS011;64169;47.240;11.312;2023-03-23T17:19:10;15.20;;;8.07;;
75589;SDS011;64169;47.240;11.312;2023-03-23T17:21:38;15.98;;;7.88;;